Main page
METAR-TAF:

METAR-TAF

Airports :

Brewster Field

Holdrege, Nebraska, United States

latitude: 40-27N, longitude: 099-20W, elevation: 2309 ft

Current weather observation

The report was made 30 minutes ago, at 13:35 UTC
Wind 13 mph from the South
Temperature 36°F
Humidity 69%
Pressure 30.00 in. Hg
Visibility: 10 miles
Clear sky

METAR: KHDE 291335Z AUTO 19011KT 10SM CLR 02/M03 A3000 RMK AO2 T00201035

Time: 08:05 (14:05 UTC)


TAF: missing

Weather observations and forecasts of more than 4000 airports (METAR and TAF reports).

The available stations are represented by yellow and red dots on the map.

Hover mouse over dot to see the name of the station.

Then click to see weather observations and forecasts.

To change the map : click on the green buttons with a black cross to zoom in, on the green button with a dash to zoom out, or on the green arrows for adjacent maps.


METAR-TAF: